Yorktown Express — WDD6127 — position and weather

sailwx.info

Track history (hours):
 
Tides and Currents Weather Stations Pressure Air Temp Water Temp Dewpoint Dewpoint Depression Visibility Wind Speed Wind Dir Waves Ship Positions

Yorktown Express

More information available from US FCC via Universal Licensing System and Coast Guard Vessel Documentation Center.

Last reported at 2014-Jul-31 05:00 UTC. Time now 2014-Aug-01 03:42 UTC.
Position N 33°42' W 073°54'.

Type: Cargo ship. MMSI: 367168650.

Wind from 050 at 17 knots

Waves 2.0 meters (7 feet), 2 second period

Barometer 1027.5 mb
Air temperature 26.0 ° C
Visibility: greater than 10.8 NM
Dewpoint 19.9 ° C
Water temperature 29.0 ° C

Date/timePositionNaut miles runAvg speedWind from/ knotsBaromVisibWave heightAir tempDewpointWater temp
2014-Jul-31 05:00N 33°42' W 073°54'23421.3 050 / 171027.510.8 2.026.019.929.0
2014-Jul-30 18:00N 34°54' W 069°24'76518.2 200 / 171019.0 2.2 2.022.020.529.0
2014-Jul-29 00:00N 39°00' W 054°18'47819.9 250 / 201024.010.8 2.027.024.129.0
2014-Jul-28 00:00N 41°30' W 044°24'23219.3 230 / 121022.010.8 1.025.022.027.0
2014-Jul-27 12:00N 43°12' W 039°42'24920.7 170 / 101023.010.8 1.024.019.423.0
2014-Jul-27 00:00N 45°00' W 034°30'   040 / 151021.410.8 1.518.715.921.0
2014-Jul-24 15:33N 49°40' W 007°44'2519.2
2014-Jul-24 14:14N 49°44' W 007°05'22318.8
2014-Jul-24 02:21N 50°22' W 001°23'1619.9
2014-Jul-24 01:33N 50°32' W 001°04'1111.0
2014-Jul-24 00:34N 50°42' W 000°57'1414.4
2014-Jul-23 23:33N 50°47' W 001°19'8 8.1
2014-Jul-23 22:33N 50°54' W 001°25'2 1.8
2014-Jul-23 21:33N 50°55' W 001°28'0 0.0
2014-Jul-23 20:30N 50°55' W 001°28'0 0.0
2014-Jul-23 19:29N 50°55' W 001°28'0 0.0
2014-Jul-23 18:32N 50°55' W 001°28'0 0.0
2014-Jul-23 17:32N 50°55' W 001°28'0 0.0
2014-Jul-23 16:32N 50°55' W 001°28'0 0.0
2014-Jul-23 15:32N 50°55' W 001°28'0 0.0
2014-Jul-23 14:32N 50°55' W 001°28'0 0.0
2014-Jul-23 13:26N 50°55' W 001°28'0 0.0
2014-Jul-23 12:32N 50°55' W 001°28'0 0.0
2014-Jul-23 11:32N 50°55' W 001°28'0 0.0
2014-Jul-23 10:32N 50°55' W 001°28'0 0.0
2014-Jul-23 09:32N 50°55' W 001°28'0 0.0
2014-Jul-23 08:32N 50°55' W 001°28'2 1.7
2014-Jul-23 07:34N 50°54' W 001°25'9 8.7
2014-Jul-23 06:34N 50°47' W 001°19'1414.4
2014-Jul-23 05:33N 50°42' W 000°57'6 5.6
2014-Jul-23 04:29N 50°36' W 001°01'0 0.0
2014-Jul-23 03:32N 50°36' W 001°01'0 0.2
2014-Jul-23 02:32N 50°36' W 001°02'0 0.1
2014-Jul-23 01:32N 50°36' W 001°02'0 0.0
2014-Jul-23 00:32N 50°36' W 001°02'0 0.0
2014-Jul-22 23:32N 50°36' W 001°02'0 0.0
2014-Jul-22 22:32N 50°36' W 001°02'0 0.0
2014-Jul-22 21:32N 50°36' W 001°02'0 0.2
2014-Jul-22 20:32N 50°36' W 001°01'0 0.1
2014-Jul-22 19:32N 50°36' W 001°01'0 0.0
2014-Jul-22 18:32N 50°36' W 001°01'0 0.0
2014-Jul-22 17:32N 50°36' W 001°01'0 0.0
2014-Jul-22 16:32N 50°36' W 001°01'0 0.0
2014-Jul-22 15:32N 50°36' W 001°01'0 0.0
2014-Jul-22 14:32N 50°36' W 001°01'0 0.2
2014-Jul-22 13:29N 50°36' W 001°02'0 0.1
2014-Jul-22 12:32N 50°36' W 001°02'0 0.0
2014-Jul-22 11:29N 50°36' W 001°02'0 0.0
2014-Jul-22 10:29N 50°36' W 001°02'0 0.1
2014-Jul-22 09:33N 50°36' W 001°02'6 5.9
2014-Jul-22 08:33N 50°36' W 000°52'1110.6
2014-Jul-22 07:33N 50°34' W 000°36'1010.0
2014-Jul-22 06:33N 50°33' W 000°20'1110.6
2014-Jul-22 05:33N 50°32' W 000°04'1212.0
2014-Jul-22 04:33N 50°34' E 000°15'1212.3
2014-Jul-22 03:33N 50°37' E 000°34'1313.3
2014-Jul-22 02:33N 50°43' E 000°52'1414.5
2014-Jul-22 01:33N 50°52' E 001°11'1514.6
2014-Jul-22 00:33N 51°02' E 001°28'1312.8
2014-Jul-21 23:33N 51°11' E 001°42'1312.7
2014-Jul-21 22:33N 51°21' E 001°53'1212.1
2014-Jul-21 21:33N 51°30' E 002°06'1212.5
2014-Jul-21 20:33N 51°40' E 002°18'312.6
2014-Jul-21 20:18N 51°43' E 002°22'1012.9
2014-Jul-21 19:33N 51°51' E 002°31'1313.5
2014-Jul-21 18:33N 52°01' E 002°45'1814.4
2014-Jul-21 17:19N 52°14' E 003°04'4114.7
2014-Jul-21 14:33N 52°47' E 003°44'1816.0
2014-Jul-21 13:25N 53°00' E 004°04'1516.9
2014-Jul-21 12:32N 53°10' E 004°23'1716.8
2014-Jul-21 11:33N 53°25' E 004°35'1616.5
2014-Jul-21 10:33N 53°34' E 004°58'1918.6
2014-Jul-21 09:33N 53°39' E 005°28'2019.6
2014-Jul-21 08:33N 53°46' E 005°59'2019.5
2014-Jul-21 07:31N 53°51' E 006°32'3718.8
2014-Jul-21 05:33N 53°59' E 007°34'  
Track history (hours):
 
Tides and Currents Weather Stations Pressure Air Temp Water Temp Dewpoint Dewpoint Depression Visibility Wind Speed Wind Dir Waves Ship Positions

Yorktown Express

More information available from US FCC via Universal Licensing System and Coast Guard Vessel Documentation Center.

Last reported at 2014-Jul-31 05:00 UTC. Time now 2014-Aug-01 03:42 UTC.
Position N 33°42' W 073°54'.

Type: Cargo ship. MMSI: 367168650.

Wind from 050 at 17 knots

Waves 2.0 meters (7 feet), 2 second period

Barometer 1027.5 mb
Air temperature 26.0 ° C
Visibility: greater than 10.8 NM
Dewpoint 19.9 ° C
Water temperature 29.0 ° C

Date/timePositionNaut miles runAvg speedWind from/ knotsBaromVisibWave heightAir tempDewpointWater temp
2014-Jul-31 05:00N 33°42' W 073°54'23421.3 050 / 171027.510.8 2.026.019.929.0
2014-Jul-30 18:00N 34°54' W 069°24'76518.2 200 / 171019.0 2.2 2.022.020.529.0
2014-Jul-29 00:00N 39°00' W 054°18'47819.9 250 / 201024.010.8 2.027.024.129.0
2014-Jul-28 00:00N 41°30' W 044°24'23219.3 230 / 121022.010.8 1.025.022.027.0
2014-Jul-27 12:00N 43°12' W 039°42'24920.7 170 / 101023.010.8 1.024.019.423.0
2014-Jul-27 00:00N 45°00' W 034°30'   040 / 151021.410.8 1.518.715.921.0
2014-Jul-24 15:33N 49°40' W 007°44'2519.2
2014-Jul-24 14:14N 49°44' W 007°05'22318.8
2014-Jul-24 02:21N 50°22' W 001°23'1619.9
2014-Jul-24 01:33N 50°32' W 001°04'1111.0
2014-Jul-24 00:34N 50°42' W 000°57'1414.4
2014-Jul-23 23:33N 50°47' W 001°19'8 8.1
2014-Jul-23 22:33N 50°54' W 001°25'2 1.8
2014-Jul-23 21:33N 50°55' W 001°28'0 0.0
2014-Jul-23 20:30N 50°55' W 001°28'0 0.0
2014-Jul-23 19:29N 50°55' W 001°28'0 0.0
2014-Jul-23 18:32N 50°55' W 001°28'0 0.0
2014-Jul-23 17:32N 50°55' W 001°28'0 0.0
2014-Jul-23 16:32N 50°55' W 001°28'0 0.0
2014-Jul-23 15:32N 50°55' W 001°28'0 0.0
2014-Jul-23 14:32N 50°55' W 001°28'0 0.0
2014-Jul-23 13:26N 50°55' W 001°28'0 0.0
2014-Jul-23 12:32N 50°55' W 001°28'0 0.0
2014-Jul-23 11:32N 50°55' W 001°28'0 0.0
2014-Jul-23 10:32N 50°55' W 001°28'0 0.0
2014-Jul-23 09:32N 50°55' W 001°28'0 0.0
2014-Jul-23 08:32N 50°55' W 001°28'2 1.7
2014-Jul-23 07:34N 50°54' W 001°25'9 8.7
2014-Jul-23 06:34N 50°47' W 001°19'1414.4
2014-Jul-23 05:33N 50°42' W 000°57'6 5.6
2014-Jul-23 04:29N 50°36' W 001°01'0 0.0
2014-Jul-23 03:32N 50°36' W 001°01'0 0.2
2014-Jul-23 02:32N 50°36' W 001°02'0 0.1
2014-Jul-23 01:32N 50°36' W 001°02'0 0.0
2014-Jul-23 00:32N 50°36' W 001°02'0 0.0
2014-Jul-22 23:32N 50°36' W 001°02'0 0.0
2014-Jul-22 22:32N 50°36' W 001°02'0 0.0
2014-Jul-22 21:32N 50°36' W 001°02'0 0.2
2014-Jul-22 20:32N 50°36' W 001°01'0 0.1
2014-Jul-22 19:32N 50°36' W 001°01'0 0.0
2014-Jul-22 18:32N 50°36' W 001°01'0 0.0
2014-Jul-22 17:32N 50°36' W 001°01'0 0.0
2014-Jul-22 16:32N 50°36' W 001°01'0 0.0
2014-Jul-22 15:32N 50°36' W 001°01'0 0.0
2014-Jul-22 14:32N 50°36' W 001°01'0 0.2
2014-Jul-22 13:29N 50°36' W 001°02'0 0.1
2014-Jul-22 12:32N 50°36' W 001°02'0 0.0
2014-Jul-22 11:29N 50°36' W 001°02'0 0.0
2014-Jul-22 10:29N 50°36' W 001°02'0 0.1
2014-Jul-22 09:33N 50°36' W 001°02'6 5.9
2014-Jul-22 08:33N 50°36' W 000°52'1110.6
2014-Jul-22 07:33N 50°34' W 000°36'1010.0
2014-Jul-22 06:33N 50°33' W 000°20'1110.6
2014-Jul-22 05:33N 50°32' W 000°04'1212.0
2014-Jul-22 04:33N 50°34' E 000°15'1212.3
2014-Jul-22 03:33N 50°37' E 000°34'1313.3
2014-Jul-22 02:33N 50°43' E 000°52'1414.5
2014-Jul-22 01:33N 50°52' E 001°11'1514.6
2014-Jul-22 00:33N 51°02' E 001°28'1312.8
2014-Jul-21 23:33N 51°11' E 001°42'1312.7
2014-Jul-21 22:33N 51°21' E 001°53'1212.1
2014-Jul-21 21:33N 51°30' E 002°06'1212.5
2014-Jul-21 20:33N 51°40' E 002°18'312.6
2014-Jul-21 20:18N 51°43' E 002°22'1012.9
2014-Jul-21 19:33N 51°51' E 002°31'1313.5
2014-Jul-21 18:33N 52°01' E 002°45'1814.4
2014-Jul-21 17:19N 52°14' E 003°04'4114.7
2014-Jul-21 14:33N 52°47' E 003°44'1816.0
2014-Jul-21 13:25N 53°00' E 004°04'1516.9
2014-Jul-21 12:32N 53°10' E 004°23'1716.8
2014-Jul-21 11:33N 53°25' E 004°35'1616.5
2014-Jul-21 10:33N 53°34' E 004°58'1918.6
2014-Jul-21 09:33N 53°39' E 005°28'2019.6
2014-Jul-21 08:33N 53°46' E 005°59'2019.5
2014-Jul-21 07:31N 53°51' E 006°32'3718.8
2014-Jul-21 05:33N 53°59' E 007°34'  

Dump ship's entire track history